Time;durP1;ratioP1;P1;durP2;ratioP2;P2;SDS_P1;SDS_P2;PMS_P1;PMS_P2;Temp;Humidity;BMP_temperature;BMP_pressure;BME280_temperature;BME280_humidity;BME280_pressure;Samples;Min_cycle;Max_cycle;Signal;HPM_P1;HPM_P2
2023/08/21 00:01:47;;;;;;;6.15;4.97;;;17.00;95.10;;;;;;4903629;29;20040;-87
2023/08/21 00:04:12;;;;;;;7.00;6.30;;;16.90;95.20;;;;;;4910031;29;20025;-87
2023/08/21 00:06:39;;;;;;;6.33;5.73;;;16.90;95.30;;;;;;4910808;29;20037;-87
2023/08/21 00:09:05;;;;;;;8.88;6.28;;;16.90;95.30;;;;;;4902498;29;20025;-89
2023/08/21 00:11:31;;;;;;;8.32;7.50;;;16.90;95.00;;;;;;4903540;29;20379;-88
2023/08/21 00:13:56;;;;;;;8.02;7.22;;;16.80;95.10;;;;;;4903808;29;20443;-86
2023/08/21 00:16:23;;;;;;;8.10;6.72;;;16.70;95.10;;;;;;4892494;29;20049;-89
2023/08/21 00:18:49;;;;;;;8.18;6.63;;;16.70;95.00;;;;;;4903863;29;20024;-89
2023/08/21 00:21:17;;;;;;;8.68;7.65;;;16.60;94.90;;;;;;4912324;29;20058;-90
2023/08/21 00:23:44;;;;;;;9.57;8.23;;;16.50;94.90;;;;;;4917370;29;20048;-89
2023/08/21 00:26:10;;;;;;;7.80;7.00;;;16.40;94.90;;;;;;4902816;29;20041;-88
2023/08/21 00:28:36;;;;;;;10.18;7.95;;;16.30;95.20;;;;;;4892015;29;20252;-89
2023/08/21 00:31:06;;;;;;;10.15;9.15;;;16.30;95.20;;;;;;4906201;29;20046;-90
2023/08/21 00:33:32;;;;;;;11.80;8.40;;;16.20;95.30;;;;;;4887584;29;20025;-90
2023/08/21 00:35:58;;;;;;;11.93;9.20;;;16.20;95.50;;;;;;4908527;29;20024;-89
2023/08/21 00:38:24;;;;;;;8.77;7.97;;;16.20;95.70;;;;;;4928457;29;20696;-88
2023/08/21 00:40:50;;;;;;;9.35;8.48;;;16.20;95.70;;;;;;4913216;29;20046;-89
2023/08/21 00:43:16;;;;;;;10.20;8.27;;;16.20;95.80;;;;;;4903628;29;20083;-90
2023/08/21 00:45:44;;;;;;;10.35;8.63;;;16.20;96.00;;;;;;4885829;29;20084;-89
2023/08/21 00:48:11;;;;;;;;;;;16.30;96.00;;;;;;4904559;29;20441;-89
2023/08/21 00:50:38;;;;;;;9.68;7.78;;;16.20;95.70;;;;;;4912401;29;20292;-90
2023/08/21 00:53:04;;;;;;;10.43;8.27;;;16.10;95.90;;;;;;4903423;29;20035;-90
2023/08/21 00:55:31;;;;;;;9.83;8.50;;;16.00;96.20;;;;;;4903899;29;20100;-90
2023/08/21 00:57:57;;;;;;;9.20;8.30;;;16.00;96.40;;;;;;4885722;29;20035;-89
2023/08/21 01:00:25;;;;;;;10.57;8.23;;;15.90;96.60;;;;;;4912250;29;20032;-89
2023/08/21 01:02:50;;;;;;;;;;;15.90;96.60;;;;;;4915250;29;20025;-87
2023/08/21 01:05:19;;;;;;;10.00;8.60;;;15.80;96.40;;;;;;4909425;29;19914;-87
2023/08/21 01:08:03;;;;;;;9.13;8.18;;;15.80;96.70;;;;;;4887579;29;20048;-88
2023/08/21 01:10:39;;;;;;;9.80;8.80;;;15.80;96.80;;;;;;4902386;29;20029;-88
2023/08/21 01:13:46;;;;;;;12.18;8.90;;;15.80;97.00;;;;;;4905590;29;20025;-89
2023/08/21 01:16:14;;;;;;;8.85;7.38;;;15.70;96.90;;;;;;4853657;29;20443;-88
2023/08/21 01:18:42;;;;;;;9.48;8.50;;;15.60;97.20;;;;;;4892016;29;20041;-88
2023/08/21 01:21:08;;;;;;;10.52;8.70;;;15.70;97.30;;;;;;4883596;29;20021;-87
2023/08/21 01:23:38;;;;;;;8.93;8.02;;;15.70;97.30;;;;;;4883773;29;20036;-88
2023/08/21 01:26:04;;;;;;;10.50;8.20;;;15.70;97.30;;;;;;4906906;29;20043;-89
2023/08/21 01:28:34;;;;;;;9.73;8.73;;;15.70;97.30;;;;;;4906618;29;20040;-87
2023/08/21 01:31:05;;;;;;;9.73;8.07;;;15.70;97.20;;;;;;4908650;29;20056;-88
2023/08/21 01:33:34;;;;;;;9.02;8.13;;;15.70;97.30;;;;;;4903530;29;20041;-88
2023/08/21 01:36:03;;;;;;;8.15;7.35;;;15.80;97.20;;;;;;4905568;29;20032;-87
2023/08/21 01:38:35;;;;;;;9.48;8.48;;;15.70;97.00;;;;;;4904228;29;20025;-86
2023/08/21 01:41:01;;;;;;;9.18;8.27;;;15.70;96.60;;;;;;4904607;29;20032;-87
2023/08/21 01:43:27;;;;;;;9.90;8.27;;;15.60;96.70;;;;;;4884212;29;20155;-88
2023/08/21 01:45:54;;;;;;;13.68;8.65;;;15.50;96.90;;;;;;4909721;29;20081;-87
2023/08/21 01:48:20;;;;;;;8.80;7.70;;;15.50;96.90;;;;;;4884711;29;20040;-88
2023/08/21 01:50:45;;;;;;;10.32;7.25;;;15.50;97.00;;;;;;4887990;29;20395;-87
2023/08/21 01:53:11;;;;;;;8.57;7.68;;;15.40;97.10;;;;;;4912359;29;20076;-87
2023/08/21 01:55:37;;;;;;;11.65;8.07;;;15.40;97.30;;;;;;4906123;29;20043;-87
2023/08/21 01:58:03;;;;;;;8.02;7.22;;;15.30;97.30;;;;;;4912258;29;20028;-87
2023/08/21 02:00:29;;;;;;;9.70;7.65;;;15.20;97.30;;;;;;4904320;29;20092;-88
2023/08/21 02:02:55;;;;;;;11.50;7.82;;;15.20;97.50;;;;;;4896996;29;20044;-86
2023/08/21 02:05:20;;;;;;;10.23;8.00;;;15.20;97.70;;;;;;4907417;29;20343;-88
2023/08/21 02:07:46;;;;;;;10.38;7.07;;;15.10;97.90;;;;;;4915182;29;20123;-87
2023/08/21 02:10:12;;;;;;;8.90;8.07;;;15.10;97.90;;;;;;4913645;29;20025;-87
2023/08/21 02:12:38;;;;;;;9.13;6.70;;;15.10;98.00;;;;;;4906613;29;20130;-88
2023/08/21 02:15:04;;;;;;;7.55;6.50;;;15.10;98.20;;;;;;4924246;29;20051;-88
2023/08/21 02:17:30;;;;;;;9.88;8.27;;;15.10;98.00;;;;;;4940599;29;20053;-88
2023/08/21 02:19:55;;;;;;;11.68;7.57;;;15.10;98.00;;;;;;4921162;29;20045;-88
2023/08/21 02:22:21;;;;;;;10.73;8.90;;;15.10;98.20;;;;;;4904134;29;20041;-87
2023/08/21 02:24:47;;;;;;;11.20;7.93;;;15.10;98.30;;;;;;4902644;29;20423;-88
2023/08/21 02:27:13;;;;;;;10.23;8.63;;;15.00;98.40;;;;;;4901576;29;20558;-89
2023/08/21 02:29:39;;;;;;;9.35;8.45;;;15.00;98.40;;;;;;4904441;29;20025;-87
2023/08/21 02:32:05;;;;;;;11.30;8.63;;;15.00;98.30;;;;;;4915130;29;20040;-90
2023/08/21 02:34:30;;;;;;;9.60;8.07;;;15.00;98.40;;;;;;4911007;29;20024;-89
2023/08/21 02:36:58;;;;;;;10.27;6.80;;;15.00;98.40;;;;;;4888272;29;20125;-88
2023/08/21 02:39:24;;;;;;;;;;;15.00;98.40;;;;;;4903409;29;20032;-90
2023/08/21 02:41:49;;;;;;;7.93;6.68;;;15.00;98.20;;;;;;4904183;29;19942;-90
2023/08/21 02:44:15;;;;;;;8.82;6.40;;;14.90;98.30;;;;;;4901994;29;20024;-90
2023/08/21 02:46:41;;;;;;;9.57;8.10;;;14.90;98.40;;;;;;4912715;29;20048;-90
2023/08/21 02:49:07;;;;;;;8.13;7.32;;;14.90;98.40;;;;;;4901527;29;20064;-87
2023/08/21 02:51:33;;;;;;;9.63;7.53;;;15.00;98.40;;;;;;4903944;29;20047;-88
2023/08/21 02:53:58;;;;;;;10.23;7.35;;;15.00;98.50;;;;;;4892453;29;20048;-90
2023/08/21 02:56:24;;;;;;;8.98;7.00;;;15.00;98.50;;;;;;4884120;29;20165;-89
2023/08/21 02:58:50;;;;;;;10.85;7.43;;;15.10;98.40;;;;;;4882040;29;20497;-88
2023/08/21 03:01:16;;;;;;;9.73;6.93;;;15.10;98.40;;;;;;4898741;29;20028;-89
2023/08/21 03:03:42;;;;;;;10.73;7.23;;;15.10;98.30;;;;;;4888317;29;20047;-90
2023/08/21 03:06:08;;;;;;;10.05;6.20;;;15.20;98.40;;;;;;4900434;29;20034;-91
2023/08/21 03:08:34;;;;;;;9.70;6.60;;;15.20;98.20;;;;;;4883262;29;20025;-90
2023/08/21 03:11:00;;;;;;;9.18;6.05;;;15.30;98.00;;;;;;4899141;29;20032;-90
2023/08/21 03:13:25;;;;;;;8.45;5.72;;;15.30;97.80;;;;;;4899753;29;20025;-89
2023/08/21 03:15:51;;;;;;;6.55;5.72;;;15.40;97.80;;;;;;4914268;29;20025;-89
2023/08/21 03:18:17;;;;;;;8.63;6.18;;;15.40;97.70;;;;;;4911421;29;20111;-90
2023/08/21 03:20:47;;;;;;;8.10;6.88;;;15.40;97.70;;;;;;4917375;29;20111;-88
2023/08/21 03:23:13;;;;;;;7.28;6.57;;;15.50;97.90;;;;;;4903110;29;20100;-90
2023/08/21 03:25:39;;;;;;;8.05;6.13;;;15.60;97.50;;;;;;4894015;29;20033;-89
2023/08/21 03:28:05;;;;;;;8.73;6.07;;;15.60;97.40;;;;;;4904626;29;20088;-88
2023/08/21 03:30:30;;;;;;;10.18;5.35;;;15.70;97.20;;;;;;4918029;29;20031;-89
2023/08/21 03:32:56;;;;;;;10.25;5.63;;;15.70;97.00;;;;;;4920371;29;20231;-87
2023/08/21 03:35:22;;;;;;;8.20;5.70;;;15.70;97.00;;;;;;4911317;29;20027;-87
2023/08/21 03:37:48;;;;;;;14.93;6.57;;;15.80;96.90;;;;;;4916706;29;20031;-87
2023/08/21 03:40:14;;;;;;;6.38;5.30;;;15.90;96.60;;;;;;4917724;29;20028;-89
2023/08/21 03:42:39;;;;;;;10.18;8.00;;;15.90;96.40;;;;;;4903090;29;20040;-89
2023/08/21 03:45:07;;;;;;;10.20;5.93;;;15.90;96.40;;;;;;4900577;29;20368;-90
2023/08/21 03:47:32;;;;;;;7.40;5.25;;;15.90;96.50;;;;;;4902319;29;20577;-88
2023/08/21 03:49:58;;;;;;;8.13;5.07;;;16.00;96.20;;;;;;4900452;29;20029;-89
2023/08/21 03:52:24;;;;;;;10.65;7.35;;;16.00;96.30;;;;;;4906853;29;20024;-90
2023/08/21 03:54:50;;;;;;;9.45;5.50;;;16.00;96.20;;;;;;4900930;29;20024;-90
2023/08/21 03:57:16;;;;;;;7.22;4.28;;;16.10;96.00;;;;;;4880274;29;20032;-90
2023/08/21 03:59:41;;;;;;;10.38;6.13;;;16.10;95.60;;;;;;4904203;29;20033;-90
2023/08/21 04:02:07;;;;;;;5.72;5.10;;;16.10;95.60;;;;;;4909304;29;20044;-88
2023/08/21 04:04:33;;;;;;;11.30;8.23;;;16.10;95.70;;;;;;4920716;29;20017;-92
2023/08/21 04:06:59;;;;;;;11.63;6.00;;;16.10;95.50;;;;;;4928153;29;20052;-87
2023/08/21 04:09:25;;;;;;;7.57;4.53;;;16.10;95.40;;;;;;4899232;29;20087;-89
2023/08/21 04:11:52;;;;;;;10.52;4.93;;;16.20;95.40;;;;;;4903176;29;20025;-90
2023/08/21 04:14:17;;;;;;;12.27;5.20;;;16.20;95.30;;;;;;4910143;29;20025;-89
2023/08/21 04:16:43;;;;;;;5.13;4.25;;;16.30;95.10;;;;;;4904881;29;20092;-89
2023/08/21 04:19:12;;;;;;;12.95;5.28;;;16.40;94.80;;;;;;4892304;29;20043;-89
2023/08/21 04:21:37;;;;;;;7.97;4.78;;;16.50;94.50;;;;;;4909550;29;20028;-89
2023/08/21 04:24:03;;;;;;;6.55;3.80;;;16.50;94.20;;;;;;4890317;29;20025;-89
2023/08/21 04:26:29;;;;;;;5.35;3.92;;;16.60;94.20;;;;;;4907781;29;20329;-89
2023/08/21 04:28:55;;;;;;;9.63;4.53;;;16.60;94.10;;;;;;4891036;29;20107;-88
2023/08/21 04:31:20;;;;;;;5.60;3.90;;;16.70;94.20;;;;;;4909873;29;20035;-90
2023/08/21 04:33:46;;;;;;;4.68;3.42;;;16.90;93.60;;;;;;4908720;29;20035;-90
2023/08/21 04:36:16;;;;;;;8.55;5.90;;;17.00;93.10;;;;;;4910094;29;20029;-89
2023/08/21 04:38:43;;;;;;;6.28;4.10;;;17.00;93.00;;;;;;4915692;29;20112;-90
2023/08/21 04:41:09;;;;;;;7.10;4.20;;;17.10;93.00;;;;;;4929686;29;20028;-90
2023/08/21 04:43:35;;;;;;;7.38;3.60;;;17.40;92.80;;;;;;4909623;29;20271;-88
2023/08/21 04:46:03;;;;;;;5.32;4.55;;;18.00;91.90;;;;;;4930141;29;20044;-90
2023/08/21 04:48:29;;;;;;;16.05;9.05;;;18.70;90.10;;;;;;4912124;29;20024;-89
2023/08/21 04:50:55;;;;;;;6.28;3.60;;;19.10;89.30;;;;;;4912432;29;20036;-88
2023/08/21 04:53:21;;;;;;;17.52;8.73;;;19.60;87.50;;;;;;4924339;29;20024;-89
2023/08/21 04:55:46;;;;;;;6.45;4.50;;;20.00;85.50;;;;;;4924599;29;20028;-88
2023/08/21 04:58:12;;;;;;;3.58;3.00;;;20.50;84.10;;;;;;4900217;29;20035;-88
2023/08/21 05:00:38;;;;;;;12.38;7.15;;;21.00;81.40;;;;;;4894707;29;20032;-89
2023/08/21 05:03:05;;;;;;;12.85;6.70;;;21.10;79.50;;;;;;4921371;29;20045;-90
2023/08/21 05:05:31;;;;;;;;;;;21.10;79.30;;;;;;4910947;29;20440;-89
2023/08/21 05:07:58;;;;;;;3.67;2.92;;;21.30;79.90;;;;;;4911763;29;19915;-90
2023/08/21 05:10:24;;;;;;;11.00;5.53;;;22.00;77.90;;;;;;4899106;29;20487;-88
2023/08/21 05:12:53;;;;;;;5.40;2.83;;;23.00;74.60;;;;;;4873732;29;20127;-92
2023/08/21 05:15:24;;;;;;;5.85;3.00;;;23.30;70.90;;;;;;4917774;29;20143;-90
2023/08/21 05:17:53;;;;;;;4.70;2.67;;;23.10;70.70;;;;;;4921717;29;20017;-90
2023/08/21 05:20:20;;;;;;;4.63;2.88;;;23.30;69.80;;;;;;4909126;29;20934;-90
2023/08/21 05:22:47;;;;;;;;;;;23.70;69.90;;;;;;4907578;29;20309;-90
2023/08/21 05:25:13;;;;;;;6.23;3.00;;;24.10;70.00;;;;;;4873187;29;19911;-92
2023/08/21 05:27:39;;;;;;;5.05;3.58;;;24.50;66.80;;;;;;4872285;29;20041;-86
2023/08/21 05:30:10;;;;;;;5.45;3.35;;;24.80;65.80;;;;;;4915189;29;20035;-90
2023/08/21 05:32:36;;;;;;;5.30;2.63;;;25.40;64.60;;;;;;4892867;29;20029;-90
2023/08/21 05:35:03;;;;;;;6.53;2.75;;;25.40;62.20;;;;;;4892231;29;20035;-91
2023/08/21 05:37:32;;;;;;;6.55;2.95;;;25.60;62.70;;;;;;4850026;29;20094;-89
2023/08/21 05:39:57;;;;;;;5.63;2.70;;;26.30;61.30;;;;;;4856504;29;20030;-89
2023/08/21 05:42:24;;;;;;;4.13;2.13;;;27.00;58.90;;;;;;4856916;29;20076;-91
2023/08/21 05:44:50;;;;;;;5.40;2.80;;;27.30;57.20;;;;;;4870997;29;20033;-91
2023/08/21 05:47:17;;;;;;;5.10;3.40;;;27.80;56.40;;;;;;4859807;29;20033;-90
2023/08/21 05:49:47;;;;;;;5.00;2.67;;;27.90;55.40;;;;;;4860223;29;20057;-90
2023/08/21 05:52:13;;;;;;;4.05;2.35;;;28.70;54.90;;;;;;4868127;29;20369;-92
2023/08/21 05:54:39;;;;;;;4.75;2.30;;;29.10;53.50;;;;;;4851463;29;20033;-91
2023/08/21 05:57:05;;;;;;;5.47;2.55;;;29.50;52.00;;;;;;4854297;29;20030;-89
2023/08/21 05:59:31;;;;;;;4.10;2.40;;;29.60;51.10;;;;;;4848378;29;20066;-92
2023/08/21 06:01:57;;;;;;;5.43;2.47;;;29.50;50.70;;;;;;4847248;29;20045;-89
2023/08/21 06:04:24;;;;;;;4.47;3.08;;;29.40;51.20;;;;;;4826045;29;20056;-90
2023/08/21 06:06:50;;;;;;;4.85;2.72;;;29.10;51.20;;;;;;4844449;29;20049;-88
2023/08/21 06:09:17;;;;;;;6.65;2.42;;;28.60;50.80;;;;;;4832270;29;20489;-92
2023/08/21 06:11:43;;;;;;;21.73;3.85;;;28.70;51.80;;;;;;4846101;29;20026;-90
2023/08/21 06:14:09;;;;;;;7.07;3.13;;;29.80;51.40;;;;;;4862177;29;20116;-93
2023/08/21 06:16:35;;;;;;;4.57;2.40;;;31.20;49.30;;;;;;4894890;29;20024;-91
2023/08/21 06:19:00;;;;;;;4.27;2.53;;;31.90;47.30;;;;;;4908918;29;20386;-92
2023/08/21 06:21:26;;;;;;;2.97;2.07;;;32.90;45.80;;;;;;4890824;29;20033;-90
2023/08/21 06:23:58;;;;;;;5.90;2.40;;;33.10;44.50;;;;;;4892789;29;20033;-90
2023/08/21 06:26:24;;;;;;;5.90;2.47;;;31.70;44.70;;;;;;4889148;29;20027;-93
2023/08/21 06:28:51;;;;;;;6.80;2.50;;;31.40;46.20;;;;;;4895596;29;20025;-90
2023/08/21 06:31:20;;;;;;;7.65;2.58;;;32.20;45.10;;;;;;4900859;29;20052;-83
2023/08/21 06:33:48;;;;;;;3.95;2.50;;;32.00;44.60;;;;;;4887138;29;20032;-93
2023/08/21 06:36:14;;;;;;;7.30;2.75;;;32.00;44.80;;;;;;4900891;29;20038;-90
2023/08/21 06:38:40;;;;;;;6.88;3.47;;;31.70;44.60;;;;;;4902044;29;20103;-90
2023/08/21 06:41:06;;;;;;;8.10;3.08;;;30.70;45.20;;;;;;4906183;29;20052;-89
2023/08/21 06:43:32;;;;;;;5.90;3.28;;;29.10;47.10;;;;;;4888315;29;20021;-90
2023/08/21 06:45:59;;;;;;;4.20;2.20;;;;;;;;;;4907990;29;20072;-91
2023/08/21 06:48:25;;;;;;;7.90;3.45;;;;;;;;;;4891620;29;20095;-91
2023/08/21 06:50:51;;;;;;;8.13;3.28;;;;;;;;;;4906504;29;20076;-92
2023/08/21 06:53:19;;;;;;;8.00;3.85;;;;;;;;;;4910011;29;20108;-92
2023/08/21 06:55:46;;;;;;;7.05;3.03;;;;;;;;;;4912351;29;20036;-90
2023/08/21 06:58:12;;;;;;;7.68;4.38;;;;;;;;;;4916197;29;20024;-94
2023/08/21 07:00:39;;;;;;;;;;;25.20;52.70;;;;;;4914973;29;20032;-92
2023/08/21 07:03:07;;;;;;;6.03;4.33;;;;;;;;;;4900480;29;19911;-90
2023/08/21 07:05:34;;;;;;;4.43;2.53;;;22.70;59.10;;;;;;4878699;29;20037;-93
2023/08/21 07:08:00;;;;;;;4.47;2.75;;;23.50;59.20;;;;;;4889725;29;20060;-95
2023/08/21 07:10:27;;;;;;;4.40;2.40;;;25.20;56.30;;;;;;4920211;29;20017;-94
2023/08/21 07:12:53;;;;;;;;;;;27.10;53.00;;;;;;4921744;29;20088;-87
2023/08/21 07:15:21;;;;;;;4.53;2.10;;;29.20;52.80;;;;;;4927089;29;19899;-94
2023/08/21 07:17:50;;;;;;;3.15;2.10;;;30.20;46.70;;;;;;4930803;29;20091;-92
2023/08/21 07:20:16;;;;;;;3.45;2.40;;;28.70;46.00;;;;;;4920497;29;20024;-90
2023/08/21 07:22:42;;;;;;;6.38;2.67;;;27.00;48.50;;;;;;4889499;29;20037;-92
2023/08/21 07:25:08;;;;;;;5.90;2.20;;;27.60;50.20;;;;;;4916576;29;20063;-92
2023/08/21 07:27:34;;;;;;;3.67;2.20;;;29.20;47.60;;;;;;4888667;29;20400;-95
2023/08/21 07:30:00;;;;;;;5.83;2.50;;;29.60;46.50;;;;;;4880161;29;20444;-93
2023/08/21 07:32:26;;;;;;;2.90;2.17;;;29.10;46.40;;;;;;4873785;29;20036;-92
2023/08/21 07:34:55;;;;;;;3.05;2.63;;;28.10;47.80;;;;;;4931804;29;20044;-87
2023/08/21 07:37:21;;;;;;;5.35;2.45;;;26.60;50.00;;;;;;4920449;29;20028;-91
2023/08/21 07:39:48;;;;;;;4.40;2.65;;;25.30;52.20;;;;;;4912662;29;20553;-94
2023/08/21 07:42:30;;;;;;;4.15;2.60;;;25.40;53.60;;;;;;4901245;29;20036;-93
2023/08/21 07:45:15;;;;;;;2.47;2.17;;;26.90;51.40;;;;;;4933296;29;20032;-92
2023/08/21 07:47:52;;;;;;;3.73;1.90;;;28.70;48.40;;;;;;4932465;29;20049;-94
2023/08/21 07:50:19;;;;;;;3.25;1.95;;;30.40;45.70;;;;;;4900486;29;20037;-93
2023/08/21 07:52:45;;;;;;;4.70;2.65;;;30.60;44.10;;;;;;4922527;29;20028;-91
2023/08/21 07:55:36;;;;;;;6.43;2.90;;;29.50;45.00;;;;;;4925018;29;20016;-90
2023/08/21 07:58:04;;;;;;;4.60;2.42;;;28.20;46.70;;;;;;4891141;29;20040;-94
2023/08/21 08:00:35;;;;;;;5.55;2.05;;;26.50;49.50;;;;;;4897772;29;20029;-93
2023/08/21 08:03:02;;;;;;;5.30;2.17;;;25.30;51.10;;;;;;4906126;29;20037;-95
2023/08/21 08:05:29;;;;;;;3.55;2.50;;;24.40;52.40;;;;;;4924404;29;20077;-94
2023/08/21 08:07:55;;;;;;;3.85;2.20;;;23.60;53.50;;;;;;4916990;29;20036;-92
2023/08/21 08:10:21;;;;;;;3.22;2.63;;;23.90;55.00;;;;;;4920760;29;20029;-96
2023/08/21 08:12:47;;;;;;;7.90;4.10;;;25.20;53.00;;;;;;4918703;29;20040;-94
2023/08/21 08:15:13;;;;;;;4.93;2.35;;;27.50;50.70;;;;;;4915260;29;20252;-89
2023/08/21 08:17:42;;;;;;;5.05;2.60;;;29.50;46.90;;;;;;4920354;29;20036;-93
2023/08/21 08:20:09;;;;;;;4.25;2.28;;;29.40;45.50;;;;;;4913068;29;20068;-94
2023/08/21 08:22:35;;;;;;;;;;;28.60;46.00;;;;;;4905189;29;20025;-94
2023/08/21 08:25:01;;;;;;;5.90;2.47;;;27.70;47.40;;;;;;4884271;29;19959;-94
2023/08/21 08:27:33;;;;;;;5.00;2.30;;;27.10;48.80;;;;;;4893211;29;20049;-96
2023/08/21 08:29:59;;;;;;;2.60;2.30;;;26.90;48.50;;;;;;4867266;29;20037;-93
2023/08/21 08:32:26;;;;;;;6.60;3.40;;;26.40;48.50;;;;;;4867171;29;20045;-91
2023/08/21 08:34:53;;;;;;;7.60;3.65;;;26.10;50.00;;;;;;4879955;29;20149;-87
2023/08/21 08:37:21;;;;;;;6.90;5.15;;;27.20;49.50;;;;;;4882087;29;20123;-87
2023/08/21 08:39:47;;;;;;;2.75;2.03;;;29.30;46.90;;;;;;4880771;29;20661;-89
2023/08/21 08:42:14;;;;;;;4.85;3.42;;;31.20;43.70;;;;;;4881391;29;20081;-90
2023/08/21 08:44:41;;;;;;;8.23;3.58;;;31.90;42.20;;;;;;4883631;29;20029;-90
2023/08/21 08:47:10;;;;;;;7.45;3.78;;;31.60;41.80;;;;;;4892335;29;20062;-92
2023/08/21 08:49:37;;;;;;;5.03;3.15;;;30.80;42.20;;;;;;4898541;29;20037;-92
2023/08/21 08:52:05;;;;;;;5.03;2.85;;;29.50;43.60;;;;;;4888492;29;20123;-90
2023/08/21 08:54:32;;;;;;;3.25;2.88;;;29.20;45.20;;;;;;4893001;29;20047;-90
2023/08/21 08:56:59;;;;;;;6.15;2.25;;;30.30;44.20;;;;;;4866372;29;20100;-92
2023/08/21 08:59:29;;;;;;;6.53;2.88;;;30.80;42.90;;;;;;4858363;29;20026;-90
2023/08/21 09:01:56;;;;;;;6.25;2.75;;;31.60;41.80;;;;;;4872667;29;20034;-93
2023/08/21 09:04:22;;;;;;;9.25;2.13;;;32.50;42.00;;;;;;4870368;29;20117;-95
2023/08/21 09:06:48;;;;;;;4.50;2.78;;;34.20;40.60;;;;;;4866795;29;20064;-94
2023/08/21 09:09:15;;;;;;;5.85;2.22;;;34.90;39.00;;;;;;4862441;29;20037;-92
2023/08/21 09:12:18;;;;;;;3.77;2.37;;;34.00;38.70;;;;;;4881865;29;20022;-90
2023/08/21 09:15:30;;;;;;;3.10;2.60;;;33.20;39.90;;;;;;4879020;29;20120;-95
2023/08/21 09:18:04;;;;;;;2.78;2.13;;;32.00;40.90;;;;;;4868614;29;20032;-86
2023/08/21 09:20:35;;;;;;;5.25;2.42;;;32.20;41.10;;;;;;4888995;29;20065;-89
2023/08/21 09:23:08;;;;;;;7.72;1.95;;;33.20;40.40;;;;;;4870727;29;20101;-93
2023/08/21 09:25:47;;;;;;;2.20;1.95;;;34.60;38.70;;;;;;4865655;29;20049;-95
2023/08/21 09:28:14;;;;;;;5.18;1.90;;;34.80;37.80;;;;;;4874341;29;20208;-91
2023/08/21 09:30:51;;;;;;;3.53;1.90;;;35.30;36.60;;;;;;4889758;29;20049;-87
2023/08/21 09:33:22;;;;;;;5.07;2.38;;;35.10;36.30;;;;;;4902964;29;20037;-90
2023/08/21 09:35:55;;;;;;;4.50;2.20;;;34.40;37.20;;;;;;5049396;23;20133;-93
2023/08/21 09:38:46;;;;;;;4.72;2.00;;;33.90;37.20;;;;;;4999127;28;20038;-90
2023/08/21 09:41:12;;;;;;;12.70;5.38;;;33.00;38.20;;;;;;4946612;29;20138;-89
2023/08/21 09:44:14;;;;;;;6.57;3.00;;;32.80;39.20;;;;;;4938016;29;20076;-85
2023/08/21 09:46:49;;;;;;;4.68;2.83;;;31.90;39.30;;;;;;4949578;28;20063;-89
2023/08/21 09:49:16;;;;;;;4.15;2.45;;;;;;;;;;4926865;29;20050;-93
2023/08/21 09:51:44;;;;;;;6.82;2.67;;;30.60;41.60;;;;;;4932453;29;20072;-96
2023/08/21 09:54:13;;;;;;;4.22;2.20;;;29.40;42.70;;;;;;4942393;29;20506;-91
2023/08/21 09:56:39;;;;;;;4.13;2.35;;;29.10;43.60;;;;;;4940120;29;20093;-93
2023/08/21 09:59:07;;;;;;;3.50;1.87;;;29.60;43.50;;;;;;4938437;29;20032;-91
2023/08/21 10:01:36;;;;;;;4.82;2.55;;;31.20;41.70;;;;;;4955328;28;20024;-93
2023/08/21 10:04:04;;;;;;;3.35;2.20;;;32.20;39.80;;;;;;4959874;29;20016;-95
2023/08/21 10:06:36;;;;;;;4.80;2.50;;;31.50;39.30;;;;;;4930479;29;20059;-88
2023/08/21 10:09:02;;;;;;;3.70;2.10;;;30.70;40.60;;;;;;4936636;29;20032;-92
2023/08/21 10:11:29;;;;;;;3.10;2.03;;;30.70;41.30;;;;;;4928666;29;20114;-90
2023/08/21 10:14:00;;;;;;;5.18;2.10;;;31.40;41.40;;;;;;4931475;29;20052;-92
2023/08/21 10:16:29;;;;;;;7.88;3.35;;;32.50;40.20;;;;;;4930624;29;20032;-93
2023/08/21 10:19:02;;;;;;;5.28;2.83;;;32.30;40.10;;;;;;4969614;28;20031;-93
2023/08/21 10:21:37;;;;;;;5.70;2.50;;;32.80;39.60;;;;;;4957862;28;20450;-93
2023/08/21 10:24:09;;;;;;;4.53;2.15;;;33.30;38.50;;;;;;4957348;28;20090;-93
2023/08/21 10:26:40;;;;;;;3.83;2.45;;;33.90;37.50;;;;;;4989814;28;20062;-94
2023/08/21 10:29:09;;;;;;;4.32;2.25;;;32.80;37.50;;;;;;4967710;28;20030;-91
2023/08/21 10:31:35;;;;;;;5.00;2.28;;;;;;;;;;4962735;28;20132;-91
2023/08/21 10:34:05;;;;;;;2.80;2.13;;;;;;;;;;4975064;28;20049;-88
2023/08/21 10:36:41;;;;;;;4.82;2.95;;;;;;;;;;4960291;28;20066;-90
2023/08/21 10:39:19;;;;;;;3.60;2.10;;;;;;;;;;4952015;29;20059;-92
2023/08/21 10:42:02;;;;;;;4.60;2.45;;;;;;;;;;4954972;29;20566;-90
2023/08/21 10:44:52;;;;;;;6.32;2.70;;;;;;;;;;4942415;29;20047;-91
2023/08/21 10:47:28;;;;;;;3.85;2.38;;;;;;;;;;4930133;29;20031;-90
2023/08/21 10:49:55;;;;;;;2.95;2.17;;;;;;;;;;4943251;29;20023;-90
2023/08/21 10:52:23;;;;;;;3.53;2.80;;;28.60;41.30;;;;;;4959240;29;20050;-92
2023/08/21 10:55:01;;;;;;;5.72;3.10;;;23.80;50.90;;;;;;4975574;28;20067;-91
2023/08/21 10:57:30;;;;;;;5.45;2.80;;;23.30;50.90;;;;;;4949341;29;20034;-89
2023/08/21 11:00:05;;;;;;;6.97;3.20;;;23.00;51.30;;;;;;4957492;29;20019;-88
2023/08/21 11:02:32;;;;;;;3.75;2.10;;;22.90;51.90;;;;;;4960889;29;20028;-90
2023/08/21 11:04:58;;;;;;;;;;;22.80;52.20;;;;;;4952672;28;20037;-87
2023/08/21 11:07:27;;;;;;;4.40;2.47;;;22.70;51.60;;;;;;4961320;28;19923;-87
2023/08/21 11:09:54;;;;;;;4.40;2.45;;;22.60;52.90;;;;;;4977445;28;20074;-89
2023/08/21 11:12:22;;;;;;;6.82;2.50;;;22.60;53.40;;;;;;4965490;29;20031;-89
2023/08/21 11:14:48;;;;;;;5.57;2.47;;;22.70;53.40;;;;;;4958507;28;20027;-89
2023/08/21 11:17:18;;;;;;;7.60;2.67;;;22.80;52.70;;;;;;4975372;28;20035;-94
2023/08/21 11:19:45;;;;;;;4.93;2.45;;;22.90;52.30;;;;;;4949414;29;20051;-95
2023/08/21 11:22:11;;;;;;;5.95;2.58;;;23.00;52.60;;;;;;4946871;29;20028;-88
2023/08/21 11:24:37;;;;;;;3.57;2.57;;;22.90;52.10;;;;;;4928321;29;20115;-91
2023/08/21 11:27:08;;;;;;;7.25;2.85;;;22.90;52.30;;;;;;4958725;29;20031;-92
2023/08/21 11:29:38;;;;;;;6.25;2.65;;;22.90;52.30;;;;;;4966850;29;20019;-92
2023/08/21 11:32:09;;;;;;;6.30;4.38;;;22.80;52.40;;;;;;4935688;29;20142;-86
2023/08/21 11:34:35;;;;;;;4.22;2.58;;;22.70;52.50;;;;;;4958634;29;20050;-89
2023/08/21 11:37:01;;;;;;;5.05;2.53;;;22.60;52.90;;;;;;4963606;29;20031;-89
2023/08/21 11:39:30;;;;;;;6.68;2.58;;;22.60;53.00;;;;;;4949695;29;20024;-91
2023/08/21 11:41:59;;;;;;;3.40;2.70;;;22.50;52.60;;;;;;4950162;29;20031;-91
2023/08/21 11:44:25;;;;;;;3.28;2.33;;;22.50;52.50;;;;;;4963041;29;20027;-89
2023/08/21 11:46:53;;;;;;;4.32;2.47;;;22.30;52.80;;;;;;4948220;29;20037;-91
2023/08/21 11:49:22;;;;;;;8.20;2.97;;;22.30;52.60;;;;;;4936296;29;20030;-93
2023/08/21 11:51:50;;;;;;;4.70;2.70;;;22.30;53.00;;;;;;4951318;29;20555;-94
2023/08/21 11:54:18;;;;;;;4.05;2.58;;;22.40;53.00;;;;;;4973500;29;20062;-89
2023/08/21 11:56:44;;;;;;;5.93;2.95;;;22.30;53.30;;;;;;4969833;29;20035;-87
2023/08/21 11:59:12;;;;;;;4.07;2.70;;;22.20;53.80;;;;;;4979371;28;20043;-92
2023/08/21 12:01:38;;;;;;;6.03;2.70;;;22.20;53.80;;;;;;4962907;29;20061;-89
2023/08/21 12:04:15;;;;;;;7.22;3.15;;;22.10;53.60;;;;;;4979304;28;20045;-89
2023/08/21 12:06:44;;;;;;;7.28;3.00;;;22.10;54.30;;;;;;4963803;28;20055;-88
2023/08/21 12:09:10;;;;;;;4.00;2.60;;;22.10;54.40;;;;;;4963359;28;20015;-87
2023/08/21 12:11:38;;;;;;;7.70;3.05;;;22.20;54.10;;;;;;4967274;29;20016;-89
2023/08/21 12:14:04;;;;;;;6.28;2.95;;;22.30;54.90;;;;;;4969791;29;20030;-92
2023/08/21 12:16:33;;;;;;;4.45;2.33;;;22.50;54.00;;;;;;4937492;28;20059;-95
2023/08/21 12:18:59;;;;;;;7.03;2.50;;;22.60;53.70;;;;;;4935529;29;20437;-88
2023/08/21 12:21:26;;;;;;;3.85;2.40;;;22.50;53.20;;;;;;4933869;29;20037;-92
2023/08/21 12:23:52;;;;;;;5.27;2.23;;;22.50;52.70;;;;;;4946761;29;20087;-91
2023/08/21 12:26:22;;;;;;;3.47;2.55;;;22.40;52.40;;;;;;4933694;29;20036;-90
2023/08/21 12:28:49;;;;;;;5.22;2.65;;;22.30;52.70;;;;;;4913337;29;20071;-93
2023/08/21 12:31:15;;;;;;;;;;;22.10;52.90;;;;;;4888179;29;20056;-88
2023/08/21 12:33:43;;;;;;;5.10;3.53;;;22.00;52.80;;;;;;4919095;29;19914;-95
2023/08/21 12:36:08;;;;;;;4.20;2.95;;;22.00;53.10;;;;;;4906432;29;20049;-87
2023/08/21 12:38:34;;;;;;;3.05;2.50;;;22.00;52.90;;;;;;4894419;29;20046;-91
2023/08/21 12:41:02;;;;;;;7.00;2.88;;;22.10;53.20;;;;;;4918722;29;20060;-87
2023/08/21 12:43:28;;;;;;;4.38;2.60;;;22.10;53.30;;;;;;4934407;29;20012;-89
2023/08/21 12:45:55;;;;;;;4.28;2.92;;;22.10;53.40;;;;;;4919524;29;20032;-90
2023/08/21 12:48:21;;;;;;;6.22;2.88;;;22.10;53.80;;;;;;4915452;29;20052;-89
2023/08/21 12:50:50;;;;;;;6.55;2.92;;;22.10;53.60;;;;;;4918782;29;20065;-89
2023/08/21 12:53:17;;;;;;;3.35;2.50;;;22.10;53.60;;;;;;4922653;29;20028;-87
2023/08/21 12:55:43;;;;;;;5.13;4.25;;;22.00;53.70;;;;;;4937368;29;20036;-92
2023/08/21 12:58:13;;;;;;;3.65;2.72;;;22.00;53.80;;;;;;4923651;29;20598;-94